createdAt,value
2017-10-07T00:00:32.466Z,9.93
2017-10-07T00:03:06.580Z,9.80
2017-10-07T00:05:39.272Z,10.93
2017-10-07T00:08:11.199Z,9.70
2017-10-07T00:10:42.637Z,10.17
2017-10-07T00:13:13.695Z,9.70
2017-10-07T00:15:45.144Z,9.67
2017-10-07T00:18:18.698Z,10.00
2017-10-07T00:20:52.853Z,9.47
2017-10-07T00:23:23.845Z,9.50
2017-10-07T00:25:55.433Z,9.73
2017-10-07T00:28:26.782Z,10.20
2017-10-07T00:30:58.133Z,10.07
2017-10-07T00:33:29.808Z,10.17
2017-10-07T00:36:02.186Z,10.10
2017-10-07T00:38:33.632Z,10.63
2017-10-07T00:41:05.334Z,9.70
2017-10-07T00:43:37.955Z,10.00
2017-10-07T00:46:10.373Z,9.93
2017-10-07T00:48:52.046Z,10.43
2017-10-07T00:51:24.459Z,12.17
2017-10-07T00:53:56.762Z,12.43
2017-10-07T00:56:31.789Z,12.67
2017-10-07T00:59:03.989Z,12.73
2017-10-07T01:01:37.181Z,11.83
2017-10-07T01:04:08.964Z,11.90
2017-10-07T01:06:41.523Z,10.17
2017-10-07T01:09:14.206Z,12.37
2017-10-07T01:11:46.616Z,12.97
2017-10-07T01:14:17.636Z,14.17
2017-10-07T01:16:49.970Z,11.00
2017-10-07T01:19:22.025Z,10.40
2017-10-07T01:21:53.062Z,11.00
2017-10-07T01:24:24.904Z,13.30
2017-10-07T01:26:56.935Z,16.10
2017-10-07T01:29:29.915Z,11.67
2017-10-07T01:32:01.319Z,10.80
2017-10-07T01:34:55.999Z,11.67
2017-10-07T01:37:27.202Z,12.77
2017-10-07T01:40:01.187Z,10.77
2017-10-07T01:42:32.847Z,12.17
2017-10-07T01:45:04.765Z,10.07
2017-10-07T01:47:37.992Z,9.90
2017-10-07T01:50:09.319Z,12.47
2017-10-07T01:52:40.465Z,12.90
2017-10-07T01:55:12.574Z,10.43
2017-10-07T01:57:43.801Z,11.67
2017-10-07T02:00:15.768Z,10.53
2017-10-07T02:02:48.212Z,12.80
2017-10-07T02:05:20.218Z,12.73
2017-10-07T02:07:52.070Z,12.43
2017-10-07T02:10:24.229Z,11.30
2017-10-07T02:12:56.722Z,10.23
2017-10-07T02:15:28.665Z,10.50
2017-10-07T02:18:01.287Z,11.30
2017-10-07T02:20:33.863Z,11.43
2017-10-07T02:23:05.938Z,8.80
2017-10-07T02:25:37.538Z,8.20
2017-10-07T02:28:09.234Z,8.90
2017-10-07T02:30:40.554Z,8.13
2017-10-07T02:33:11.841Z,9.43
2017-10-07T02:35:42.938Z,10.70
2017-10-07T02:38:14.315Z,10.27
2017-10-07T02:40:45.562Z,10.37
2017-10-07T02:43:16.482Z,9.27
2017-10-07T02:45:48.121Z,9.47
2017-10-07T02:48:18.971Z,8.73
2017-10-07T02:50:50.254Z,10.23
2017-10-07T02:53:21.164Z,10.60
2017-10-07T02:55:52.019Z,9.50
2017-10-07T02:58:23.133Z,9.80
2017-10-07T03:00:54.071Z,10.70
2017-10-07T03:03:25.001Z,9.80
2017-10-07T03:05:56.331Z,10.40
2017-10-07T03:08:32.182Z,9.37
2017-10-07T03:11:15.785Z,10.53
2017-10-07T03:13:47.114Z,10.07
2017-10-07T03:16:18.301Z,9.60
2017-10-07T03:18:50.344Z,10.77
2017-10-07T03:21:22.166Z,10.57
2017-10-07T03:23:53.849Z,11.30
2017-10-07T03:26:28.346Z,8.80
2017-10-07T03:29:02.757Z,9.43
2017-10-07T03:31:38.699Z,10.30
2017-10-07T03:34:09.799Z,10.13
2017-10-07T03:36:42.135Z,8.67
2017-10-07T03:39:13.697Z,8.23
2017-10-07T03:41:45.757Z,9.03
2017-10-07T03:44:20.458Z,8.60
2017-10-07T03:46:52.516Z,8.97
2017-10-07T03:49:23.688Z,9.63
2017-10-07T03:51:55.716Z,11.87
2017-10-07T03:54:26.974Z,9.97
